<?xml version="1.0" encoding="UTF-8" standalone="no" ?>
<gpx xmlns="http://www.topografix.com/GPX/1/1" xmlns:xsi="http://www.w3.org/2001/XMLSchema-instance" xsi:schemaLocation="http://www.topografix.com/GPX/1/1 http://www.topografix.com/GPX/1/1/gpx.xsd" version="1.1" creator="VisuGPX - https://www.visugpx.com">
  <metadata>
    <name>la grande étoile</name>
    <desc><![CDATA[Proposée par Gransrandonnée]]></desc>
  </metadata>
  <trk>
    <name><![CDATA[Hiking]]></name>
    <trkseg>
      <trkpt lat="43.36355" lon="5.44075">
        <ele>249.3</ele>
        <time>2021-03-27T08:26:29Z</time>
      </trkpt>
      <trkpt lat="43.3636" lon="5.44076">
        <ele>249.6</ele>
        <time>2021-03-27T08:28:39Z</time>
      </trkpt>
      <trkpt lat="43.36358" lon="5.44073">
        <ele>249.4</ele>
        <time>2021-03-27T08:31:24Z</time>
      </trkpt>
      <trkpt lat="43.36377" lon="5.44085">
        <ele>250.6</ele>
        <time>2021-03-27T08:32:41Z</time>
      </trkpt>
      <trkpt lat="43.36396" lon="5.44099">
        <ele>251.3</ele>
        <time>2021-03-27T08:33:01Z</time>
      </trkpt>
      <trkpt lat="43.36416" lon="5.44111">
        <ele>252.3</ele>
        <time>2021-03-27T08:33:19Z</time>
      </trkpt>
      <trkpt lat="43.36435" lon="5.44126">
        <ele>252.5</ele>
        <time>2021-03-27T08:33:37Z</time>
      </trkpt>
      <trkpt lat="43.36454" lon="5.4414">
        <ele>252.7</ele>
        <time>2021-03-27T08:33:55Z</time>
      </trkpt>
      <trkpt lat="43.36473" lon="5.44155">
        <ele>252.8</ele>
        <time>2021-03-27T08:34:13Z</time>
      </trkpt>
      <trkpt lat="43.36489" lon="5.44139">
        <ele>253.7</ele>
        <time>2021-03-27T08:36:06Z</time>
      </trkpt>
      <trkpt lat="43.36505" lon="5.44119">
        <ele>255</ele>
        <time>2021-03-27T08:36:29Z</time>
      </trkpt>
      <trkpt lat="43.36525" lon="5.44107">
        <ele>256.4</ele>
        <time>2021-03-27T08:36:46Z</time>
      </trkpt>
      <trkpt lat="43.36539" lon="5.44085">
        <ele>258.3</ele>
        <time>2021-03-27T08:37:05Z</time>
      </trkpt>
      <trkpt lat="43.36553" lon="5.44061">
        <ele>258.9</ele>
        <time>2021-03-27T08:37:23Z</time>
      </trkpt>
      <trkpt lat="43.36569" lon="5.44041">
        <ele>259.6</ele>
        <time>2021-03-27T08:37:40Z</time>
      </trkpt>
      <trkpt lat="43.36584" lon="5.44018">
        <ele>260.2</ele>
        <time>2021-03-27T08:37:57Z</time>
      </trkpt>
      <trkpt lat="43.36594" lon="5.43991">
        <ele>259</ele>
        <time>2021-03-27T08:38:13Z</time>
      </trkpt>
      <trkpt lat="43.36596" lon="5.43961">
        <ele>256</ele>
        <time>2021-03-27T08:38:37Z</time>
      </trkpt>
      <trkpt lat="43.36597" lon="5.43932">
        <ele>253.1</ele>
        <time>2021-03-27T08:39:36Z</time>
      </trkpt>
      <trkpt lat="43.36598" lon="5.43907">
        <ele>251.5</ele>
        <time>2021-03-27T08:41:03Z</time>
      </trkpt>
      <trkpt lat="43.36597" lon="5.43877">
        <ele>251.2</ele>
        <time>2021-03-27T08:41:36Z</time>
      </trkpt>
      <trkpt lat="43.36596" lon="5.43848">
        <ele>250.8</ele>
        <time>2021-03-27T08:42:02Z</time>
      </trkpt>
      <trkpt lat="43.36592" lon="5.43818">
        <ele>250.7</ele>
        <time>2021-03-27T08:42:20Z</time>
      </trkpt>
      <trkpt lat="43.36586" lon="5.43789">
        <ele>250.9</ele>
        <time>2021-03-27T08:42:39Z</time>
      </trkpt>
      <trkpt lat="43.36576" lon="5.43763">
        <ele>251.1</ele>
        <time>2021-03-27T08:42:57Z</time>
      </trkpt>
      <trkpt lat="43.36563" lon="5.43738">
        <ele>250.2</ele>
        <time>2021-03-27T08:43:16Z</time>
      </trkpt>
      <trkpt lat="43.36578" lon="5.43736">
        <ele>251.2</ele>
        <time>2021-03-27T08:43:39Z</time>
      </trkpt>
      <trkpt lat="43.36594" lon="5.43756">
        <ele>253</ele>
        <time>2021-03-27T08:44:04Z</time>
      </trkpt>
      <trkpt lat="43.36615" lon="5.43748">
        <ele>255.7</ele>
        <time>2021-03-27T08:44:24Z</time>
      </trkpt>
      <trkpt lat="43.36637" lon="5.43747">
        <ele>258.4</ele>
        <time>2021-03-27T08:44:53Z</time>
      </trkpt>
      <trkpt lat="43.36659" lon="5.43742">
        <ele>260.8</ele>
        <time>2021-03-27T08:45:13Z</time>
      </trkpt>
      <trkpt lat="43.3668" lon="5.43733">
        <ele>262.7</ele>
        <time>2021-03-27T08:45:33Z</time>
      </trkpt>
      <trkpt lat="43.36701" lon="5.43723">
        <ele>264.5</ele>
        <time>2021-03-27T08:45:53Z</time>
      </trkpt>
      <trkpt lat="43.36721" lon="5.43712">
        <ele>266.4</ele>
        <time>2021-03-27T08:46:13Z</time>
      </trkpt>
      <trkpt lat="43.36741" lon="5.43697">
        <ele>268.1</ele>
        <time>2021-03-27T08:46:32Z</time>
      </trkpt>
      <trkpt lat="43.36761" lon="5.43684">
        <ele>270</ele>
        <time>2021-03-27T08:46:52Z</time>
      </trkpt>
      <trkpt lat="43.36781" lon="5.4367">
        <ele>272.5</ele>
        <time>2021-03-27T08:47:12Z</time>
      </trkpt>
      <trkpt lat="43.36801" lon="5.43657">
        <ele>275.3</ele>
        <time>2021-03-27T08:47:32Z</time>
      </trkpt>
      <trkpt lat="43.36822" lon="5.4365">
        <ele>278</ele>
        <time>2021-03-27T08:47:58Z</time>
      </trkpt>
      <trkpt lat="43.36842" lon="5.43638">
        <ele>279.8</ele>
        <time>2021-03-27T08:48:46Z</time>
      </trkpt>
      <trkpt lat="43.36862" lon="5.43628">
        <ele>281.9</ele>
        <time>2021-03-27T08:49:07Z</time>
      </trkpt>
      <trkpt lat="43.36881" lon="5.43614">
        <ele>283.9</ele>
        <time>2021-03-27T08:49:26Z</time>
      </trkpt>
      <trkpt lat="43.36898" lon="5.43595">
        <ele>286.2</ele>
        <time>2021-03-27T08:49:49Z</time>
      </trkpt>
      <trkpt lat="43.36913" lon="5.43572">
        <ele>289.5</ele>
        <time>2021-03-27T08:50:14Z</time>
      </trkpt>
      <trkpt lat="43.36924" lon="5.43546">
        <ele>293</ele>
        <time>2021-03-27T08:50:39Z</time>
      </trkpt>
      <trkpt lat="43.3693" lon="5.43517">
        <ele>296</ele>
        <time>2021-03-27T08:51:01Z</time>
      </trkpt>
      <trkpt lat="43.36933" lon="5.43487">
        <ele>298.2</ele>
        <time>2021-03-27T08:51:25Z</time>
      </trkpt>
      <trkpt lat="43.36944" lon="5.43462">
        <ele>299.9</ele>
        <time>2021-03-27T08:51:49Z</time>
      </trkpt>
      <trkpt lat="43.36957" lon="5.43438">
        <ele>300.8</ele>
        <time>2021-03-27T08:52:16Z</time>
      </trkpt>
      <trkpt lat="43.36976" lon="5.43423">
        <ele>301.1</ele>
        <time>2021-03-27T08:52:39Z</time>
      </trkpt>
      <trkpt lat="43.36997" lon="5.43413">
        <ele>300.8</ele>
        <time>2021-03-27T08:52:58Z</time>
      </trkpt>
      <trkpt lat="43.37018" lon="5.43411">
        <ele>300.2</ele>
        <time>2021-03-27T08:53:17Z</time>
      </trkpt>
      <trkpt lat="43.37041" lon="5.43412">
        <ele>299.7</ele>
        <time>2021-03-27T08:53:37Z</time>
      </trkpt>
      <trkpt lat="43.37062" lon="5.43406">
        <ele>298.7</ele>
        <time>2021-03-27T08:53:57Z</time>
      </trkpt>
      <trkpt lat="43.37083" lon="5.43395">
        <ele>297.2</ele>
        <time>2021-03-27T08:54:18Z</time>
      </trkpt>
      <trkpt lat="43.37103" lon="5.43381">
        <ele>297.8</ele>
        <time>2021-03-27T08:54:35Z</time>
      </trkpt>
      <trkpt lat="43.37123" lon="5.43368">
        <ele>298.8</ele>
        <time>2021-03-27T08:54:52Z</time>
      </trkpt>
      <trkpt lat="43.37137" lon="5.43345">
        <ele>298.5</ele>
        <time>2021-03-27T08:55:11Z</time>
      </trkpt>
      <trkpt lat="43.37147" lon="5.43318">
        <ele>299.5</ele>
        <time>2021-03-27T08:55:31Z</time>
      </trkpt>
      <trkpt lat="43.37155" lon="5.43298">
        <ele>301.2</ele>
        <time>2021-03-27T08:56:19Z</time>
      </trkpt>
      <trkpt lat="43.37169" lon="5.43287">
        <ele>303.5</ele>
        <time>2021-03-27T08:57:24Z</time>
      </trkpt>
      <trkpt lat="43.37187" lon="5.43271">
        <ele>306.6</ele>
        <time>2021-03-27T08:57:51Z</time>
      </trkpt>
      <trkpt lat="43.37206" lon="5.43258">
        <ele>309.1</ele>
        <time>2021-03-27T08:58:30Z</time>
      </trkpt>
      <trkpt lat="43.37226" lon="5.4325">
        <ele>311.5</ele>
        <time>2021-03-27T08:58:49Z</time>
      </trkpt>
      <trkpt lat="43.37248" lon="5.43246">
        <ele>314</ele>
        <time>2021-03-27T08:59:11Z</time>
      </trkpt>
      <trkpt lat="43.37268" lon="5.43234">
        <ele>317.1</ele>
        <time>2021-03-27T08:59:33Z</time>
      </trkpt>
      <trkpt lat="43.37289" lon="5.43225">
        <ele>319.8</ele>
        <time>2021-03-27T08:59:55Z</time>
      </trkpt>
      <trkpt lat="43.37308" lon="5.43209">
        <ele>321.6</ele>
        <time>2021-03-27T09:00:17Z</time>
      </trkpt>
      <trkpt lat="43.37326" lon="5.43193">
        <ele>322.4</ele>
        <time>2021-03-27T09:00:40Z</time>
      </trkpt>
      <trkpt lat="43.37344" lon="5.43174">
        <ele>323.2</ele>
        <time>2021-03-27T09:01:01Z</time>
      </trkpt>
      <trkpt lat="43.37362" lon="5.43157">
        <ele>326.1</ele>
        <time>2021-03-27T09:01:23Z</time>
      </trkpt>
      <trkpt lat="43.3738" lon="5.43139">
        <ele>328.6</ele>
        <time>2021-03-27T09:01:48Z</time>
      </trkpt>
      <trkpt lat="43.37398" lon="5.43123">
        <ele>330.1</ele>
        <time>2021-03-27T09:02:12Z</time>
      </trkpt>
      <trkpt lat="43.37417" lon="5.4311">
        <ele>331</ele>
        <time>2021-03-27T09:02:37Z</time>
      </trkpt>
      <trkpt lat="43.37438" lon="5.431">
        <ele>334.1</ele>
        <time>2021-03-27T09:02:59Z</time>
      </trkpt>
      <trkpt lat="43.37457" lon="5.43084">
        <ele>335.9</ele>
        <time>2021-03-27T09:03:20Z</time>
      </trkpt>
      <trkpt lat="43.37476" lon="5.43068">
        <ele>339.1</ele>
        <time>2021-03-27T09:03:43Z</time>
      </trkpt>
      <trkpt lat="43.37496" lon="5.43056">
        <ele>341.5</ele>
        <time>2021-03-27T09:04:07Z</time>
      </trkpt>
      <trkpt lat="43.37513" lon="5.43038">
        <ele>342.9</ele>
        <time>2021-03-27T09:04:28Z</time>
      </trkpt>
      <trkpt lat="43.37533" lon="5.43025">
        <ele>344.1</ele>
        <time>2021-03-27T09:04:54Z</time>
      </trkpt>
      <trkpt lat="43.37554" lon="5.43018">
        <ele>345.5</ele>
        <time>2021-03-27T09:05:15Z</time>
      </trkpt>
      <trkpt lat="43.37576" lon="5.43018">
        <ele>347.5</ele>
        <time>2021-03-27T09:05:36Z</time>
      </trkpt>
      <trkpt lat="43.37598" lon="5.43025">
        <ele>350.4</ele>
        <time>2021-03-27T09:05:57Z</time>
      </trkpt>
      <trkpt lat="43.37619" lon="5.43033">
        <ele>352.7</ele>
        <time>2021-03-27T09:06:18Z</time>
      </trkpt>
      <trkpt lat="43.3764" lon="5.43044">
        <ele>354.4</ele>
        <time>2021-03-27T09:06:39Z</time>
      </trkpt>
      <trkpt lat="43.37658" lon="5.43057">
        <ele>355</ele>
        <time>2021-03-27T09:07:17Z</time>
      </trkpt>
      <trkpt lat="43.37675" lon="5.43073">
        <ele>355.8</ele>
        <time>2021-03-27T09:07:39Z</time>
      </trkpt>
      <trkpt lat="43.37687" lon="5.43099">
        <ele>359.5</ele>
        <time>2021-03-27T09:08:00Z</time>
      </trkpt>
      <trkpt lat="43.377" lon="5.43122">
        <ele>363.9</ele>
        <time>2021-03-27T09:08:31Z</time>
      </trkpt>
      <trkpt lat="43.37718" lon="5.43139">
        <ele>366.4</ele>
        <time>2021-03-27T09:08:50Z</time>
      </trkpt>
      <trkpt lat="43.37737" lon="5.43152">
        <ele>367.2</ele>
        <time>2021-03-27T09:09:08Z</time>
      </trkpt>
      <trkpt lat="43.37758" lon="5.43155">
        <ele>367.9</ele>
        <time>2021-03-27T09:09:52Z</time>
      </trkpt>
      <trkpt lat="43.37777" lon="5.4317">
        <ele>370.8</ele>
        <time>2021-03-27T09:10:18Z</time>
      </trkpt>
      <trkpt lat="43.37795" lon="5.43181">
        <ele>373.8</ele>
        <time>2021-03-27T09:10:43Z</time>
      </trkpt>
      <trkpt lat="43.37797" lon="5.43212">
        <ele>375.7</ele>
        <time>2021-03-27T09:11:12Z</time>
      </trkpt>
      <trkpt lat="43.37803" lon="5.43233">
        <ele>377</ele>
        <time>2021-03-27T09:14:32Z</time>
      </trkpt>
      <trkpt lat="43.37823" lon="5.43232">
        <ele>377.1</ele>
        <time>2021-03-27T09:16:56Z</time>
      </trkpt>
      <trkpt lat="43.37839" lon="5.43213">
        <ele>378.1</ele>
        <time>2021-03-27T09:17:40Z</time>
      </trkpt>
      <trkpt lat="43.37848" lon="5.43198">
        <ele>379.4</ele>
        <time>2021-03-27T09:18:43Z</time>
      </trkpt>
      <trkpt lat="43.37863" lon="5.43177">
        <ele>381.7</ele>
        <time>2021-03-27T09:19:03Z</time>
      </trkpt>
      <trkpt lat="43.37877" lon="5.43153">
        <ele>383.8</ele>
        <time>2021-03-27T09:19:22Z</time>
      </trkpt>
      <trkpt lat="43.3789" lon="5.43128">
        <ele>385.8</ele>
        <time>2021-03-27T09:19:42Z</time>
      </trkpt>
      <trkpt lat="43.37902" lon="5.43102">
        <ele>388.1</ele>
        <time>2021-03-27T09:20:02Z</time>
      </trkpt>
      <trkpt lat="43.37915" lon="5.43078">
        <ele>390.7</ele>
        <time>2021-03-27T09:20:21Z</time>
      </trkpt>
      <trkpt lat="43.37932" lon="5.43059">
        <ele>393.4</ele>
        <time>2021-03-27T09:20:41Z</time>
      </trkpt>
      <trkpt lat="43.37954" lon="5.43058">
        <ele>396.8</ele>
        <time>2021-03-27T09:21:00Z</time>
      </trkpt>
      <trkpt lat="43.37975" lon="5.43064">
        <ele>399.9</ele>
        <time>2021-03-27T09:21:22Z</time>
      </trkpt>
      <trkpt lat="43.37997" lon="5.43064">
        <ele>403.3</ele>
        <time>2021-03-27T09:21:40Z</time>
      </trkpt>
      <trkpt lat="43.38018" lon="5.43053">
        <ele>407.1</ele>
        <time>2021-03-27T09:22:00Z</time>
      </trkpt>
      <trkpt lat="43.38035" lon="5.43034">
        <ele>410.3</ele>
        <time>2021-03-27T09:22:20Z</time>
      </trkpt>
      <trkpt lat="43.38048" lon="5.43011">
        <ele>412.8</ele>
        <time>2021-03-27T09:22:42Z</time>
      </trkpt>
      <trkpt lat="43.38064" lon="5.4299">
        <ele>416.4</ele>
        <time>2021-03-27T09:23:03Z</time>
      </trkpt>
      <trkpt lat="43.38069" lon="5.4296">
        <ele>420.5</ele>
        <time>2021-03-27T09:23:25Z</time>
      </trkpt>
      <trkpt lat="43.38088" lon="5.42961">
        <ele>423.6</ele>
        <time>2021-03-27T09:23:53Z</time>
      </trkpt>
      <trkpt lat="43.381" lon="5.42984">
        <ele>424.5</ele>
        <time>2021-03-27T09:24:48Z</time>
      </trkpt>
      <trkpt lat="43.38107" lon="5.43013">
        <ele>424.5</ele>
        <time>2021-03-27T09:25:09Z</time>
      </trkpt>
      <trkpt lat="43.38109" lon="5.43043">
        <ele>424.1</ele>
        <time>2021-03-27T09:25:31Z</time>
      </trkpt>
      <trkpt lat="43.38123" lon="5.43064">
        <ele>426.5</ele>
        <time>2021-03-27T09:25:54Z</time>
      </trkpt>
      <trkpt lat="43.38142" lon="5.4308">
        <ele>429.6</ele>
        <time>2021-03-27T09:26:20Z</time>
      </trkpt>
      <trkpt lat="43.38162" lon="5.43094">
        <ele>433.6</ele>
        <time>2021-03-27T09:26:43Z</time>
      </trkpt>
      <trkpt lat="43.38183" lon="5.43101">
        <ele>439.3</ele>
        <time>2021-03-27T09:27:09Z</time>
      </trkpt>
      <trkpt lat="43.38202" lon="5.43109">
        <ele>444.7</ele>
        <time>2021-03-27T09:27:39Z</time>
      </trkpt>
      <trkpt lat="43.382" lon="5.43137">
        <ele>445.2</ele>
        <time>2021-03-27T09:30:37Z</time>
      </trkpt>
      <trkpt lat="43.38183" lon="5.43157">
        <ele>441.8</ele>
        <time>2021-03-27T09:31:00Z</time>
      </trkpt>
      <trkpt lat="43.38168" lon="5.43179">
        <ele>440.4</ele>
        <time>2021-03-27T09:31:24Z</time>
      </trkpt>
      <trkpt lat="43.38151" lon="5.43198">
        <ele>441.2</ele>
        <time>2021-03-27T09:31:47Z</time>
      </trkpt>
      <trkpt lat="43.38132" lon="5.43214">
        <ele>440.7</ele>
        <time>2021-03-27T09:32:08Z</time>
      </trkpt>
      <trkpt lat="43.38117" lon="5.43234">
        <ele>441</ele>
        <time>2021-03-27T09:33:00Z</time>
      </trkpt>
      <trkpt lat="43.38107" lon="5.4326">
        <ele>441.6</ele>
        <time>2021-03-27T09:33:45Z</time>
      </trkpt>
      <trkpt lat="43.38118" lon="5.4328">
        <ele>443.9</ele>
        <time>2021-03-27T09:34:16Z</time>
      </trkpt>
      <trkpt lat="43.38133" lon="5.43295">
        <ele>447.8</ele>
        <time>2021-03-27T09:36:02Z</time>
      </trkpt>
      <trkpt lat="43.38146" lon="5.43321">
        <ele>451.7</ele>
        <time>2021-03-27T09:36:25Z</time>
      </trkpt>
      <trkpt lat="43.38158" lon="5.43346">
        <ele>454</ele>
        <time>2021-03-27T09:36:45Z</time>
      </trkpt>
      <trkpt lat="43.38173" lon="5.43364">
        <ele>454.4</ele>
        <time>2021-03-27T09:37:08Z</time>
      </trkpt>
      <trkpt lat="43.38191" lon="5.4335">
        <ele>457.8</ele>
        <time>2021-03-27T09:38:03Z</time>
      </trkpt>
      <trkpt lat="43.3821" lon="5.43335">
        <ele>461.9</ele>
        <time>2021-03-27T09:38:32Z</time>
      </trkpt>
      <trkpt lat="43.38227" lon="5.43317">
        <ele>464.1</ele>
        <time>2021-03-27T09:39:01Z</time>
      </trkpt>
      <trkpt lat="43.38247" lon="5.43305">
        <ele>467</ele>
        <time>2021-03-27T09:39:28Z</time>
      </trkpt>
      <trkpt lat="43.38264" lon="5.43287">
        <ele>470.2</ele>
        <time>2021-03-27T09:39:53Z</time>
      </trkpt>
      <trkpt lat="43.38284" lon="5.43274">
        <ele>474.3</ele>
        <time>2021-03-27T09:40:25Z</time>
      </trkpt>
      <trkpt lat="43.38298" lon="5.43253">
        <ele>479.3</ele>
        <time>2021-03-27T09:41:24Z</time>
      </trkpt>
      <trkpt lat="43.38315" lon="5.43238">
        <ele>483.1</ele>
        <time>2021-03-27T09:42:23Z</time>
      </trkpt>
      <trkpt lat="43.38334" lon="5.43225">
        <ele>487.4</ele>
        <time>2021-03-27T09:44:52Z</time>
      </trkpt>
      <trkpt lat="43.38351" lon="5.43209">
        <ele>492</ele>
        <time>2021-03-27T09:45:45Z</time>
      </trkpt>
      <trkpt lat="43.38371" lon="5.432">
        <ele>498.1</ele>
        <time>2021-03-27T09:46:53Z</time>
      </trkpt>
      <trkpt lat="43.38389" lon="5.43186">
        <ele>505.7</ele>
        <time>2021-03-27T09:47:21Z</time>
      </trkpt>
      <trkpt lat="43.38407" lon="5.43174">
        <ele>513.8</ele>
        <time>2021-03-27T09:48:51Z</time>
      </trkpt>
      <trkpt lat="43.38427" lon="5.43181">
        <ele>518.7</ele>
        <time>2021-03-27T09:49:28Z</time>
      </trkpt>
      <trkpt lat="43.38447" lon="5.43173">
        <ele>525.9</ele>
        <time>2021-03-27T09:51:57Z</time>
      </trkpt>
      <trkpt lat="43.38468" lon="5.43175">
        <ele>531.6</ele>
        <time>2021-03-27T09:52:29Z</time>
      </trkpt>
      <trkpt lat="43.3849" lon="5.4318">
        <ele>536.6</ele>
        <time>2021-03-27T09:52:56Z</time>
      </trkpt>
      <trkpt lat="43.38511" lon="5.43186">
        <ele>540.6</ele>
        <time>2021-03-27T09:53:28Z</time>
      </trkpt>
      <trkpt lat="43.38533" lon="5.43185">
        <ele>545.3</ele>
        <time>2021-03-27T09:54:04Z</time>
      </trkpt>
      <trkpt lat="43.38554" lon="5.43176">
        <ele>550.2</ele>
        <time>2021-03-27T09:54:45Z</time>
      </trkpt>
      <trkpt lat="43.38573" lon="5.43162">
        <ele>554.4</ele>
        <time>2021-03-27T09:55:28Z</time>
      </trkpt>
      <trkpt lat="43.38587" lon="5.43151">
        <ele>556.1</ele>
        <time>2021-03-27T09:57:41Z</time>
      </trkpt>
      <trkpt lat="43.38579" lon="5.43137">
        <ele>555.9</ele>
        <time>2021-03-27T09:59:19Z</time>
      </trkpt>
      <trkpt lat="43.38562" lon="5.43116">
        <ele>555.7</ele>
        <time>2021-03-27T09:59:40Z</time>
      </trkpt>
      <trkpt lat="43.38551" lon="5.43091">
        <ele>557.5</ele>
        <time>2021-03-27T10:00:05Z</time>
      </trkpt>
      <trkpt lat="43.38533" lon="5.43073">
        <ele>558.4</ele>
        <time>2021-03-27T10:00:38Z</time>
      </trkpt>
      <trkpt lat="43.38522" lon="5.43047">
        <ele>558.1</ele>
        <time>2021-03-27T10:01:00Z</time>
      </trkpt>
      <trkpt lat="43.38513" lon="5.43025">
        <ele>558.6</ele>
        <time>2021-03-27T10:03:53Z</time>
      </trkpt>
      <trkpt lat="43.38507" lon="5.42997">
        <ele>559.2</ele>
        <time>2021-03-27T10:04:16Z</time>
      </trkpt>
      <trkpt lat="43.38504" lon="5.42967">
        <ele>562</ele>
        <time>2021-03-27T10:04:37Z</time>
      </trkpt>
      <trkpt lat="43.38503" lon="5.42937">
        <ele>564.5</ele>
        <time>2021-03-27T10:04:57Z</time>
      </trkpt>
      <trkpt lat="43.38505" lon="5.42907">
        <ele>567.1</ele>
        <time>2021-03-27T10:05:20Z</time>
      </trkpt>
      <trkpt lat="43.38511" lon="5.42877">
        <ele>570.1</ele>
        <time>2021-03-27T10:05:40Z</time>
      </trkpt>
      <trkpt lat="43.38519" lon="5.42849">
        <ele>572.8</ele>
        <time>2021-03-27T10:06:02Z</time>
      </trkpt>
      <trkpt lat="43.38522" lon="5.42824">
        <ele>574.4</ele>
        <time>2021-03-27T10:07:11Z</time>
      </trkpt>
      <trkpt lat="43.38514" lon="5.42812">
        <ele>575.6</ele>
        <time>2021-03-27T10:08:51Z</time>
      </trkpt>
      <trkpt lat="43.38495" lon="5.42799">
        <ele>577.4</ele>
        <time>2021-03-27T10:09:09Z</time>
      </trkpt>
      <trkpt lat="43.38475" lon="5.42786">
        <ele>576.2</ele>
        <time>2021-03-27T10:09:27Z</time>
      </trkpt>
      <trkpt lat="43.38457" lon="5.42768">
        <ele>576.5</ele>
        <time>2021-03-27T10:09:45Z</time>
      </trkpt>
      <trkpt lat="43.3844" lon="5.42754">
        <ele>577.8</ele>
        <time>2021-03-27T10:10:24Z</time>
      </trkpt>
      <trkpt lat="43.38427" lon="5.42747">
        <ele>578.8</ele>
        <time>2021-03-27T10:12:56Z</time>
      </trkpt>
      <trkpt lat="43.38414" lon="5.42726">
        <ele>579.5</ele>
        <time>2021-03-27T10:15:41Z</time>
      </trkpt>
      <trkpt lat="43.38398" lon="5.4271">
        <ele>575.3</ele>
        <time>2021-03-27T10:17:27Z</time>
      </trkpt>
      <trkpt lat="43.38412" lon="5.42725">
        <ele>579</ele>
        <time>2021-03-27T10:18:05Z</time>
      </trkpt>
      <trkpt lat="43.3843" lon="5.42744">
        <ele>578.7</ele>
        <time>2021-03-27T10:18:23Z</time>
      </trkpt>
      <trkpt lat="43.38449" lon="5.42757">
        <ele>577.4</ele>
        <time>2021-03-27T10:18:41Z</time>
      </trkpt>
      <trkpt lat="43.38465" lon="5.42773">
        <ele>576.4</ele>
        <time>2021-03-27T10:19:07Z</time>
      </trkpt>
      <trkpt lat="43.38483" lon="5.42792">
        <ele>576.6</ele>
        <time>2021-03-27T10:19:24Z</time>
      </trkpt>
      <trkpt lat="43.38504" lon="5.42802">
        <ele>577.2</ele>
        <time>2021-03-27T10:19:43Z</time>
      </trkpt>
      <trkpt lat="43.38519" lon="5.42823">
        <ele>574.9</ele>
        <time>2021-03-27T10:20:00Z</time>
      </trkpt>
      <trkpt lat="43.38518" lon="5.42853">
        <ele>572.1</ele>
        <time>2021-03-27T10:20:20Z</time>
      </trkpt>
      <trkpt lat="43.38511" lon="5.42881">
        <ele>569.4</ele>
        <time>2021-03-27T10:20:40Z</time>
      </trkpt>
      <trkpt lat="43.3851" lon="5.42909">
        <ele>565.5</ele>
        <time>2021-03-27T10:21:03Z</time>
      </trkpt>
      <trkpt lat="43.38505" lon="5.42938">
        <ele>564</ele>
        <time>2021-03-27T10:21:19Z</time>
      </trkpt>
      <trkpt lat="43.38512" lon="5.42967">
        <ele>560.5</ele>
        <time>2021-03-27T10:21:38Z</time>
      </trkpt>
      <trkpt lat="43.38522" lon="5.42994">
        <ele>557.1</ele>
        <time>2021-03-27T10:21:58Z</time>
      </trkpt>
      <trkpt lat="43.38536" lon="5.43017">
        <ele>555.6</ele>
        <time>2021-03-27T10:22:14Z</time>
      </trkpt>
      <trkpt lat="43.38549" lon="5.43041">
        <ele>555.5</ele>
        <time>2021-03-27T10:22:36Z</time>
      </trkpt>
      <trkpt lat="43.38559" lon="5.43067">
        <ele>556.6</ele>
        <time>2021-03-27T10:22:56Z</time>
      </trkpt>
      <trkpt lat="43.38569" lon="5.43094">
        <ele>557</ele>
        <time>2021-03-27T10:23:13Z</time>
      </trkpt>
      <trkpt lat="43.38578" lon="5.43123">
        <ele>556.2</ele>
        <time>2021-03-27T10:23:33Z</time>
      </trkpt>
      <trkpt lat="43.38589" lon="5.4315">
        <ele>556.1</ele>
        <time>2021-03-27T10:23:52Z</time>
      </trkpt>
      <trkpt lat="43.386" lon="5.43175">
        <ele>556.7</ele>
        <time>2021-03-27T10:24:11Z</time>
      </trkpt>
      <trkpt lat="43.38607" lon="5.43204">
        <ele>557.9</ele>
        <time>2021-03-27T10:24:29Z</time>
      </trkpt>
      <trkpt lat="43.38618" lon="5.43231">
        <ele>560.5</ele>
        <time>2021-03-27T10:24:47Z</time>
      </trkpt>
      <trkpt lat="43.38632" lon="5.43255">
        <ele>564</ele>
        <time>2021-03-27T10:25:07Z</time>
      </trkpt>
      <trkpt lat="43.38649" lon="5.43276">
        <ele>566.3</ele>
        <time>2021-03-27T10:25:28Z</time>
      </trkpt>
      <trkpt lat="43.38664" lon="5.43299">
        <ele>569.3</ele>
        <time>2021-03-27T10:25:48Z</time>
      </trkpt>
      <trkpt lat="43.38677" lon="5.43323">
        <ele>568.2</ele>
        <time>2021-03-27T10:26:09Z</time>
      </trkpt>
      <trkpt lat="43.38686" lon="5.43347">
        <ele>567</ele>
        <time>2021-03-27T10:27:10Z</time>
      </trkpt>
      <trkpt lat="43.38689" lon="5.43376">
        <ele>567.4</ele>
        <time>2021-03-27T10:27:33Z</time>
      </trkpt>
      <trkpt lat="43.38691" lon="5.43403">
        <ele>567.9</ele>
        <time>2021-03-27T10:28:16Z</time>
      </trkpt>
      <trkpt lat="43.38699" lon="5.4343">
        <ele>569.3</ele>
        <time>2021-03-27T10:28:56Z</time>
      </trkpt>
      <trkpt lat="43.38707" lon="5.43454">
        <ele>571.4</ele>
        <time>2021-03-27T10:29:41Z</time>
      </trkpt>
      <trkpt lat="43.38717" lon="5.4348">
        <ele>575.2</ele>
        <time>2021-03-27T10:30:06Z</time>
      </trkpt>
      <trkpt lat="43.38726" lon="5.43508">
        <ele>579.5</ele>
        <time>2021-03-27T10:30:35Z</time>
      </trkpt>
      <trkpt lat="43.38724" lon="5.43537">
        <ele>580.4</ele>
        <time>2021-03-27T10:30:53Z</time>
      </trkpt>
      <trkpt lat="43.38726" lon="5.43565">
        <ele>582.3</ele>
        <time>2021-03-27T10:31:30Z</time>
      </trkpt>
      <trkpt lat="43.38741" lon="5.43585">
        <ele>588.4</ele>
        <time>2021-03-27T10:32:05Z</time>
      </trkpt>
      <trkpt lat="43.38763" lon="5.43592">
        <ele>589</ele>
        <time>2021-03-27T10:32:49Z</time>
      </trkpt>
      <trkpt lat="43.38781" lon="5.43607">
        <ele>586.3</ele>
        <time>2021-03-27T10:33:09Z</time>
      </trkpt>
      <trkpt lat="43.38798" lon="5.43624">
        <ele>586.3</ele>
        <time>2021-03-27T10:33:47Z</time>
      </trkpt>
      <trkpt lat="43.38812" lon="5.43639">
        <ele>588.7</ele>
        <time>2021-03-27T10:35:11Z</time>
      </trkpt>
      <trkpt lat="43.38822" lon="5.43665">
        <ele>594.1</ele>
        <time>2021-03-27T10:35:44Z</time>
      </trkpt>
      <trkpt lat="43.38834" lon="5.43684">
        <ele>594.7</ele>
        <time>2021-03-27T10:37:05Z</time>
      </trkpt>
      <trkpt lat="43.38851" lon="5.43701">
        <ele>593.4</ele>
        <time>2021-03-27T10:38:07Z</time>
      </trkpt>
      <trkpt lat="43.38865" lon="5.4372">
        <ele>594.1</ele>
        <time>2021-03-27T10:38:41Z</time>
      </trkpt>
      <trkpt lat="43.38883" lon="5.43733">
        <ele>596.9</ele>
        <time>2021-03-27T10:39:26Z</time>
      </trkpt>
      <trkpt lat="43.38901" lon="5.43749">
        <ele>602.1</ele>
        <time>2021-03-27T10:39:45Z</time>
      </trkpt>
      <trkpt lat="43.38922" lon="5.43752">
        <ele>606.1</ele>
        <time>2021-03-27T10:40:10Z</time>
      </trkpt>
      <trkpt lat="43.38943" lon="5.43757">
        <ele>606.8</ele>
        <time>2021-03-27T10:40:33Z</time>
      </trkpt>
      <trkpt lat="43.38956" lon="5.43771">
        <ele>606.9</ele>
        <time>2021-03-27T10:41:39Z</time>
      </trkpt>
      <trkpt lat="43.38965" lon="5.43782">
        <ele>607.5</ele>
        <time>2021-03-27T10:47:28Z</time>
      </trkpt>
      <trkpt lat="43.38985" lon="5.43795">
        <ele>610.8</ele>
        <time>2021-03-27T10:47:48Z</time>
      </trkpt>
      <trkpt lat="43.39006" lon="5.43802">
        <ele>615.4</ele>
        <time>2021-03-27T10:48:09Z</time>
      </trkpt>
      <trkpt lat="43.39025" lon="5.43811">
        <ele>619.9</ele>
        <time>2021-03-27T10:48:50Z</time>
      </trkpt>
      <trkpt lat="43.39045" lon="5.43808">
        <ele>623.7</ele>
        <time>2021-03-27T10:49:40Z</time>
      </trkpt>
      <trkpt lat="43.39061" lon="5.43821">
        <ele>628.7</ele>
        <time>2021-03-27T10:50:14Z</time>
      </trkpt>
      <trkpt lat="43.39081" lon="5.43833">
        <ele>635.3</ele>
        <time>2021-03-27T10:50:40Z</time>
      </trkpt>
      <trkpt lat="43.39097" lon="5.43849">
        <ele>631.8</ele>
        <time>2021-03-27T10:51:07Z</time>
      </trkpt>
      <trkpt lat="43.39107" lon="5.43872">
        <ele>627.3</ele>
        <time>2021-03-27T10:51:48Z</time>
      </trkpt>
      <trkpt lat="43.39114" lon="5.43865">
        <ele>627.2</ele>
        <time>2021-03-27T10:53:58Z</time>
      </trkpt>
      <trkpt lat="43.39103" lon="5.4387">
        <ele>628.3</ele>
        <time>2021-03-27T11:03:14Z</time>
      </trkpt>
      <trkpt lat="43.39106" lon="5.43871">
        <ele>627.7</ele>
        <time>2021-03-27T11:15:05Z</time>
      </trkpt>
      <trkpt lat="43.39105" lon="5.43873">
        <ele>627.5</ele>
        <time>2021-03-27T11:26:59Z</time>
      </trkpt>
      <trkpt lat="43.39101" lon="5.43867">
        <ele>628.9</ele>
        <time>2021-03-27T11:42:28Z</time>
      </trkpt>
      <trkpt lat="43.39112" lon="5.43863">
        <ele>627.9</ele>
        <time>2021-03-27T11:50:49Z</time>
      </trkpt>
      <trkpt lat="43.3911" lon="5.43834">
        <ele>632.1</ele>
        <time>2021-03-27T11:51:32Z</time>
      </trkpt>
      <trkpt lat="43.39119" lon="5.43811">
        <ele>628.8</ele>
        <time>2021-03-27T11:51:55Z</time>
      </trkpt>
      <trkpt lat="43.39139" lon="5.438">
        <ele>626.5</ele>
        <time>2021-03-27T11:52:18Z</time>
      </trkpt>
      <trkpt lat="43.39159" lon="5.43786">
        <ele>625.3</ele>
        <time>2021-03-27T11:52:45Z</time>
      </trkpt>
      <trkpt lat="43.39174" lon="5.43765">
        <ele>623.8</ele>
        <time>2021-03-27T11:53:11Z</time>
      </trkpt>
      <trkpt lat="43.39184" lon="5.43739">
        <ele>620.6</ele>
        <time>2021-03-27T11:53:41Z</time>
      </trkpt>
      <trkpt lat="43.39192" lon="5.43716">
        <ele>616.2</ele>
        <time>2021-03-27T11:58:07Z</time>
      </trkpt>
      <trkpt lat="43.39207" lon="5.43731">
        <ele>614.9</ele>
        <time>2021-03-27T12:00:01Z</time>
      </trkpt>
      <trkpt lat="43.39227" lon="5.43741">
        <ele>611.6</ele>
        <time>2021-03-27T12:00:31Z</time>
      </trkpt>
      <trkpt lat="43.39247" lon="5.43752">
        <ele>607.5</ele>
        <time>2021-03-27T12:01:00Z</time>
      </trkpt>
      <trkpt lat="43.39267" lon="5.43751">
        <ele>601.3</ele>
        <time>2021-03-27T12:01:37Z</time>
      </trkpt>
      <trkpt lat="43.39283" lon="5.43759">
        <ele>595.1</ele>
        <time>2021-03-27T12:02:09Z</time>
      </trkpt>
      <trkpt lat="43.39302" lon="5.4376">
        <ele>589.1</ele>
        <time>2021-03-27T12:02:44Z</time>
      </trkpt>
      <trkpt lat="43.39311" lon="5.43778">
        <ele>584.6</ele>
        <time>2021-03-27T12:03:15Z</time>
      </trkpt>
      <trkpt lat="43.3932" lon="5.43775">
        <ele>582.1</ele>
        <time>2021-03-27T12:03:44Z</time>
      </trkpt>
      <trkpt lat="43.39343" lon="5.43776">
        <ele>578.5</ele>
        <time>2021-03-27T12:04:01Z</time>
      </trkpt>
      <trkpt lat="43.39344" lon="5.43798">
        <ele>577.5</ele>
        <time>2021-03-27T12:06:44Z</time>
      </trkpt>
      <trkpt lat="43.39343" lon="5.43823">
        <ele>576.1</ele>
        <time>2021-03-27T12:07:04Z</time>
      </trkpt>
      <trkpt lat="43.39332" lon="5.43845">
        <ele>571.4</ele>
        <time>2021-03-27T12:07:28Z</time>
      </trkpt>
      <trkpt lat="43.39323" lon="5.43872">
        <ele>566.8</ele>
        <time>2021-03-27T12:07:59Z</time>
      </trkpt>
      <trkpt lat="43.39312" lon="5.43896">
        <ele>563.6</ele>
        <time>2021-03-27T12:08:33Z</time>
      </trkpt>
      <trkpt lat="43.39309" lon="5.43925">
        <ele>557.6</ele>
        <time>2021-03-27T12:08:59Z</time>
      </trkpt>
      <trkpt lat="43.393" lon="5.43951">
        <ele>554.8</ele>
        <time>2021-03-27T12:09:21Z</time>
      </trkpt>
      <trkpt lat="43.39316" lon="5.43962">
        <ele>548</ele>
        <time>2021-03-27T12:11:37Z</time>
      </trkpt>
      <trkpt lat="43.39327" lon="5.43985">
        <ele>539.5</ele>
        <time>2021-03-27T12:12:08Z</time>
      </trkpt>
      <trkpt lat="43.39335" lon="5.44012">
        <ele>532.4</ele>
        <time>2021-03-27T12:12:35Z</time>
      </trkpt>
      <trkpt lat="43.39338" lon="5.44041">
        <ele>528.2</ele>
        <time>2021-03-27T12:13:00Z</time>
      </trkpt>
      <trkpt lat="43.39343" lon="5.4407">
        <ele>524.1</ele>
        <time>2021-03-27T12:13:26Z</time>
      </trkpt>
      <trkpt lat="43.39345" lon="5.441">
        <ele>519.6</ele>
        <time>2021-03-27T12:13:52Z</time>
      </trkpt>
      <trkpt lat="43.39346" lon="5.4413">
        <ele>515.1</ele>
        <time>2021-03-27T12:14:25Z</time>
      </trkpt>
      <trkpt lat="43.39348" lon="5.44158">
        <ele>511</ele>
        <time>2021-03-27T12:15:03Z</time>
      </trkpt>
      <trkpt lat="43.39344" lon="5.44188">
        <ele>506.2</ele>
        <time>2021-03-27T12:15:26Z</time>
      </trkpt>
      <trkpt lat="43.39346" lon="5.44218">
        <ele>502.7</ele>
        <time>2021-03-27T12:15:56Z</time>
      </trkpt>
      <trkpt lat="43.39346" lon="5.44248">
        <ele>498.8</ele>
        <time>2021-03-27T12:16:23Z</time>
      </trkpt>
      <trkpt lat="43.39349" lon="5.44278">
        <ele>495.8</ele>
        <time>2021-03-27T12:16:43Z</time>
      </trkpt>
      <trkpt lat="43.39349" lon="5.44306">
        <ele>492.7</ele>
        <time>2021-03-27T12:20:19Z</time>
      </trkpt>
      <trkpt lat="43.39357" lon="5.44333">
        <ele>489.5</ele>
        <time>2021-03-27T12:21:31Z</time>
      </trkpt>
      <trkpt lat="43.39359" lon="5.44363">
        <ele>485.2</ele>
        <time>2021-03-27T12:22:01Z</time>
      </trkpt>
      <trkpt lat="43.39357" lon="5.44393">
        <ele>480.7</ele>
        <time>2021-03-27T12:22:24Z</time>
      </trkpt>
      <trkpt lat="43.39352" lon="5.44422">
        <ele>476.4</ele>
        <time>2021-03-27T12:23:03Z</time>
      </trkpt>
      <trkpt lat="43.39347" lon="5.44451">
        <ele>473.1</ele>
        <time>2021-03-27T12:23:31Z</time>
      </trkpt>
      <trkpt lat="43.39344" lon="5.44481">
        <ele>469.4</ele>
        <time>2021-03-27T12:24:01Z</time>
      </trkpt>
      <trkpt lat="43.39332" lon="5.44506">
        <ele>463.7</ele>
        <time>2021-03-27T12:24:29Z</time>
      </trkpt>
      <trkpt lat="43.3932" lon="5.4453">
        <ele>463.9</ele>
        <time>2021-03-27T12:24:53Z</time>
      </trkpt>
      <trkpt lat="43.39312" lon="5.44556">
        <ele>462.4</ele>
        <time>2021-03-27T12:26:25Z</time>
      </trkpt>
      <trkpt lat="43.39301" lon="5.44582">
        <ele>460.6</ele>
        <time>2021-03-27T12:26:54Z</time>
      </trkpt>
      <trkpt lat="43.39291" lon="5.44609">
        <ele>458.8</ele>
        <time>2021-03-27T12:27:16Z</time>
      </trkpt>
      <trkpt lat="43.3928" lon="5.44635">
        <ele>455.7</ele>
        <time>2021-03-27T12:27:37Z</time>
      </trkpt>
      <trkpt lat="43.39271" lon="5.44661">
        <ele>451.1</ele>
        <time>2021-03-27T12:27:58Z</time>
      </trkpt>
      <trkpt lat="43.39266" lon="5.4469">
        <ele>446.1</ele>
        <time>2021-03-27T12:28:18Z</time>
      </trkpt>
      <trkpt lat="43.39258" lon="5.44717">
        <ele>440.6</ele>
        <time>2021-03-27T12:28:39Z</time>
      </trkpt>
      <trkpt lat="43.39251" lon="5.44746">
        <ele>434.9</ele>
        <time>2021-03-27T12:29:02Z</time>
      </trkpt>
      <trkpt lat="43.39236" lon="5.44764">
        <ele>435.2</ele>
        <time>2021-03-27T12:33:40Z</time>
      </trkpt>
      <trkpt lat="43.39219" lon="5.4478">
        <ele>435.2</ele>
        <time>2021-03-27T12:33:59Z</time>
      </trkpt>
      <trkpt lat="43.39199" lon="5.44793">
        <ele>433.6</ele>
        <time>2021-03-27T12:34:20Z</time>
      </trkpt>
      <trkpt lat="43.39179" lon="5.44802">
        <ele>430.8</ele>
        <time>2021-03-27T12:34:44Z</time>
      </trkpt>
      <trkpt lat="43.39157" lon="5.4481">
        <ele>426.6</ele>
        <time>2021-03-27T12:35:06Z</time>
      </trkpt>
      <trkpt lat="43.39136" lon="5.44818">
        <ele>421.6</ele>
        <time>2021-03-27T12:35:29Z</time>
      </trkpt>
      <trkpt lat="43.39115" lon="5.44826">
        <ele>416.4</ele>
        <time>2021-03-27T12:35:53Z</time>
      </trkpt>
      <trkpt lat="43.39093" lon="5.44828">
        <ele>411.9</ele>
        <time>2021-03-27T12:36:14Z</time>
      </trkpt>
      <trkpt lat="43.39071" lon="5.44835">
        <ele>408.5</ele>
        <time>2021-03-27T12:36:37Z</time>
      </trkpt>
      <trkpt lat="43.39049" lon="5.44842">
        <ele>407.6</ele>
        <time>2021-03-27T12:36:57Z</time>
      </trkpt>
      <trkpt lat="43.39037" lon="5.44845">
        <ele>406.7</ele>
        <time>2021-03-27T12:37:55Z</time>
      </trkpt>
      <trkpt lat="43.39029" lon="5.4485">
        <ele>406</ele>
        <time>2021-03-27T12:43:05Z</time>
      </trkpt>
      <trkpt lat="43.39008" lon="5.44861">
        <ele>403.2</ele>
        <time>2021-03-27T12:43:24Z</time>
      </trkpt>
      <trkpt lat="43.38991" lon="5.44873">
        <ele>402</ele>
        <time>2021-03-27T12:43:49Z</time>
      </trkpt>
      <trkpt lat="43.38972" lon="5.44887">
        <ele>401.8</ele>
        <time>2021-03-27T12:44:07Z</time>
      </trkpt>
      <trkpt lat="43.38956" lon="5.44908">
        <ele>398.7</ele>
        <time>2021-03-27T12:44:25Z</time>
      </trkpt>
      <trkpt lat="43.3894" lon="5.44931">
        <ele>397.6</ele>
        <time>2021-03-27T12:44:44Z</time>
      </trkpt>
      <trkpt lat="43.38922" lon="5.44949">
        <ele>396.4</ele>
        <time>2021-03-27T12:45:04Z</time>
      </trkpt>
      <trkpt lat="43.38906" lon="5.44971">
        <ele>396</ele>
        <time>2021-03-27T12:45:24Z</time>
      </trkpt>
      <trkpt lat="43.38889" lon="5.4499">
        <ele>395.2</ele>
        <time>2021-03-27T12:45:51Z</time>
      </trkpt>
      <trkpt lat="43.3887" lon="5.45005">
        <ele>394</ele>
        <time>2021-03-27T12:46:10Z</time>
      </trkpt>
      <trkpt lat="43.38851" lon="5.45019">
        <ele>392.8</ele>
        <time>2021-03-27T12:46:31Z</time>
      </trkpt>
      <trkpt lat="43.38835" lon="5.4504">
        <ele>389.4</ele>
        <time>2021-03-27T12:46:50Z</time>
      </trkpt>
      <trkpt lat="43.3882" lon="5.45062">
        <ele>386.9</ele>
        <time>2021-03-27T12:47:09Z</time>
      </trkpt>
      <trkpt lat="43.38802" lon="5.45079">
        <ele>383.8</ele>
        <time>2021-03-27T12:47:28Z</time>
      </trkpt>
      <trkpt lat="43.38783" lon="5.45094">
        <ele>383.1</ele>
        <time>2021-03-27T12:47:47Z</time>
      </trkpt>
      <trkpt lat="43.38762" lon="5.45108">
        <ele>383</ele>
        <time>2021-03-27T12:48:05Z</time>
      </trkpt>
      <trkpt lat="43.38742" lon="5.45119">
        <ele>382.9</ele>
        <time>2021-03-27T12:48:23Z</time>
      </trkpt>
      <trkpt lat="43.3872" lon="5.45126">
        <ele>383</ele>
        <time>2021-03-27T12:48:41Z</time>
      </trkpt>
      <trkpt lat="43.38698" lon="5.45133">
        <ele>382.5</ele>
        <time>2021-03-27T12:49:00Z</time>
      </trkpt>
      <trkpt lat="43.38677" lon="5.45137">
        <ele>381.5</ele>
        <time>2021-03-27T12:49:18Z</time>
      </trkpt>
      <trkpt lat="43.38655" lon="5.45142">
        <ele>380.2</ele>
        <time>2021-03-27T12:49:36Z</time>
      </trkpt>
      <trkpt lat="43.38634" lon="5.45153">
        <ele>377.9</ele>
        <time>2021-03-27T12:49:55Z</time>
      </trkpt>
      <trkpt lat="43.38615" lon="5.45168">
        <ele>374.4</ele>
        <time>2021-03-27T12:50:13Z</time>
      </trkpt>
      <trkpt lat="43.38598" lon="5.45184">
        <ele>375.3</ele>
        <time>2021-03-27T12:50:50Z</time>
      </trkpt>
      <trkpt lat="43.38577" lon="5.45194">
        <ele>374.5</ele>
        <time>2021-03-27T12:52:34Z</time>
      </trkpt>
      <trkpt lat="43.38557" lon="5.45204">
        <ele>373.8</ele>
        <time>2021-03-27T12:52:55Z</time>
      </trkpt>
      <trkpt lat="43.38536" lon="5.45215">
        <ele>372.1</ele>
        <time>2021-03-27T12:53:15Z</time>
      </trkpt>
      <trkpt lat="43.38515" lon="5.45222">
        <ele>369.1</ele>
        <time>2021-03-27T12:53:35Z</time>
      </trkpt>
      <trkpt lat="43.38493" lon="5.45224">
        <ele>366.7</ele>
        <time>2021-03-27T12:53:57Z</time>
      </trkpt>
      <trkpt lat="43.38471" lon="5.45226">
        <ele>366</ele>
        <time>2021-03-27T12:54:18Z</time>
      </trkpt>
      <trkpt lat="43.3845" lon="5.45237">
        <ele>363.8</ele>
        <time>2021-03-27T12:54:38Z</time>
      </trkpt>
      <trkpt lat="43.38429" lon="5.45248">
        <ele>361.1</ele>
        <time>2021-03-27T12:54:58Z</time>
      </trkpt>
      <trkpt lat="43.38409" lon="5.4526">
        <ele>360.9</ele>
        <time>2021-03-27T12:55:17Z</time>
      </trkpt>
      <trkpt lat="43.38391" lon="5.45278">
        <ele>361.3</ele>
        <time>2021-03-27T12:55:37Z</time>
      </trkpt>
      <trkpt lat="43.38374" lon="5.45297">
        <ele>360.3</ele>
        <time>2021-03-27T12:55:58Z</time>
      </trkpt>
      <trkpt lat="43.38353" lon="5.45306">
        <ele>358.1</ele>
        <time>2021-03-27T12:56:16Z</time>
      </trkpt>
      <trkpt lat="43.38332" lon="5.45312">
        <ele>355.4</ele>
        <time>2021-03-27T12:56:35Z</time>
      </trkpt>
      <trkpt lat="43.38312" lon="5.45325">
        <ele>355.2</ele>
        <time>2021-03-27T12:56:53Z</time>
      </trkpt>
      <trkpt lat="43.38293" lon="5.4534">
        <ele>354.9</ele>
        <time>2021-03-27T12:57:13Z</time>
      </trkpt>
      <trkpt lat="43.38276" lon="5.4536">
        <ele>355.5</ele>
        <time>2021-03-27T12:57:34Z</time>
      </trkpt>
      <trkpt lat="43.38256" lon="5.4537">
        <ele>354.2</ele>
        <time>2021-03-27T12:57:51Z</time>
      </trkpt>
      <trkpt lat="43.38238" lon="5.4539">
        <ele>353.8</ele>
        <time>2021-03-27T12:58:09Z</time>
      </trkpt>
      <trkpt lat="43.38218" lon="5.45404">
        <ele>353.9</ele>
        <time>2021-03-27T12:58:27Z</time>
      </trkpt>
      <trkpt lat="43.38201" lon="5.45422">
        <ele>352.9</ele>
        <time>2021-03-27T12:58:45Z</time>
      </trkpt>
      <trkpt lat="43.38184" lon="5.45441">
        <ele>352.5</ele>
        <time>2021-03-27T12:59:06Z</time>
      </trkpt>
      <trkpt lat="43.38163" lon="5.45453">
        <ele>350.7</ele>
        <time>2021-03-27T12:59:23Z</time>
      </trkpt>
      <trkpt lat="43.38142" lon="5.45459">
        <ele>348.6</ele>
        <time>2021-03-27T12:59:39Z</time>
      </trkpt>
      <trkpt lat="43.3812" lon="5.45464">
        <ele>346.6</ele>
        <time>2021-03-27T12:59:56Z</time>
      </trkpt>
      <trkpt lat="43.38098" lon="5.45464">
        <ele>344.9</ele>
        <time>2021-03-27T13:00:15Z</time>
      </trkpt>
      <trkpt lat="43.38078" lon="5.45453">
        <ele>344.7</ele>
        <time>2021-03-27T13:00:34Z</time>
      </trkpt>
      <trkpt lat="43.38063" lon="5.4543">
        <ele>344.7</ele>
        <time>2021-03-27T13:00:53Z</time>
      </trkpt>
      <trkpt lat="43.38049" lon="5.45406">
        <ele>344.5</ele>
        <time>2021-03-27T13:01:12Z</time>
      </trkpt>
      <trkpt lat="43.38037" lon="5.4538">
        <ele>346</ele>
        <time>2021-03-27T13:01:31Z</time>
      </trkpt>
      <trkpt lat="43.38025" lon="5.45355">
        <ele>346.1</ele>
        <time>2021-03-27T13:01:50Z</time>
      </trkpt>
      <trkpt lat="43.38008" lon="5.45338">
        <ele>342.9</ele>
        <time>2021-03-27T13:02:08Z</time>
      </trkpt>
      <trkpt lat="43.37995" lon="5.45313">
        <ele>345.2</ele>
        <time>2021-03-27T13:02:26Z</time>
      </trkpt>
      <trkpt lat="43.37983" lon="5.45287">
        <ele>349.1</ele>
        <time>2021-03-27T13:02:46Z</time>
      </trkpt>
      <trkpt lat="43.37968" lon="5.45266">
        <ele>350.6</ele>
        <time>2021-03-27T13:03:05Z</time>
      </trkpt>
      <trkpt lat="43.37947" lon="5.45256">
        <ele>347.3</ele>
        <time>2021-03-27T13:03:22Z</time>
      </trkpt>
      <trkpt lat="43.37926" lon="5.45244">
        <ele>344.8</ele>
        <time>2021-03-27T13:03:41Z</time>
      </trkpt>
      <trkpt lat="43.37905" lon="5.45231">
        <ele>344</ele>
        <time>2021-03-27T13:03:58Z</time>
      </trkpt>
      <trkpt lat="43.37885" lon="5.45219">
        <ele>343.4</ele>
        <time>2021-03-27T13:04:15Z</time>
      </trkpt>
      <trkpt lat="43.37863" lon="5.45212">
        <ele>340.8</ele>
        <time>2021-03-27T13:04:32Z</time>
      </trkpt>
      <trkpt lat="43.3784" lon="5.45212">
        <ele>336.8</ele>
        <time>2021-03-27T13:04:49Z</time>
      </trkpt>
      <trkpt lat="43.37819" lon="5.45221">
        <ele>334.4</ele>
        <time>2021-03-27T13:05:07Z</time>
      </trkpt>
      <trkpt lat="43.37798" lon="5.45226">
        <ele>334.2</ele>
        <time>2021-03-27T13:05:22Z</time>
      </trkpt>
      <trkpt lat="43.37775" lon="5.45224">
        <ele>334.4</ele>
        <time>2021-03-27T13:05:39Z</time>
      </trkpt>
      <trkpt lat="43.37754" lon="5.45222">
        <ele>334.3</ele>
        <time>2021-03-27T13:05:56Z</time>
      </trkpt>
      <trkpt lat="43.37732" lon="5.45212">
        <ele>333.5</ele>
        <time>2021-03-27T13:06:13Z</time>
      </trkpt>
      <trkpt lat="43.37713" lon="5.45201">
        <ele>332.9</ele>
        <time>2021-03-27T13:06:55Z</time>
      </trkpt>
      <trkpt lat="43.37692" lon="5.45194">
        <ele>332.8</ele>
        <time>2021-03-27T13:07:12Z</time>
      </trkpt>
      <trkpt lat="43.37671" lon="5.45181">
        <ele>332.6</ele>
        <time>2021-03-27T13:07:30Z</time>
      </trkpt>
      <trkpt lat="43.3765" lon="5.45169">
        <ele>330.9</ele>
        <time>2021-03-27T13:07:48Z</time>
      </trkpt>
      <trkpt lat="43.37631" lon="5.45155">
        <ele>328.7</ele>
        <time>2021-03-27T13:08:04Z</time>
      </trkpt>
      <trkpt lat="43.37613" lon="5.45138">
        <ele>326.7</ele>
        <time>2021-03-27T13:08:22Z</time>
      </trkpt>
      <trkpt lat="43.37604" lon="5.45112">
        <ele>325.2</ele>
        <time>2021-03-27T13:08:54Z</time>
      </trkpt>
      <trkpt lat="43.37615" lon="5.45087">
        <ele>324.2</ele>
        <time>2021-03-27T13:09:14Z</time>
      </trkpt>
      <trkpt lat="43.37619" lon="5.4509">
        <ele>324.3</ele>
        <time>2021-03-27T13:10:50Z</time>
      </trkpt>
      <trkpt lat="43.37602" lon="5.45108">
        <ele>325</ele>
        <time>2021-03-27T13:11:15Z</time>
      </trkpt>
      <trkpt lat="43.37601" lon="5.45115">
        <ele>325.3</ele>
        <time>2021-03-27T13:18:46Z</time>
      </trkpt>
      <trkpt lat="43.37602" lon="5.45117">
        <ele>325.3</ele>
        <time>2021-03-27T13:22:38Z</time>
      </trkpt>
      <trkpt lat="43.37586" lon="5.45122">
        <ele>325</ele>
        <time>2021-03-27T13:23:10Z</time>
      </trkpt>
      <trkpt lat="43.37566" lon="5.4511">
        <ele>320.8</ele>
        <time>2021-03-27T13:23:49Z</time>
      </trkpt>
      <trkpt lat="43.37546" lon="5.45099">
        <ele>316.2</ele>
        <time>2021-03-27T13:24:09Z</time>
      </trkpt>
      <trkpt lat="43.37544" lon="5.45085">
        <ele>315.5</ele>
        <time>2021-03-27T13:28:29Z</time>
      </trkpt>
      <trkpt lat="43.37556" lon="5.4506">
        <ele>314.4</ele>
        <time>2021-03-27T13:28:51Z</time>
      </trkpt>
      <trkpt lat="43.37577" lon="5.45061">
        <ele>318.7</ele>
        <time>2021-03-27T13:29:13Z</time>
      </trkpt>
      <trkpt lat="43.37594" lon="5.45042">
        <ele>316.6</ele>
        <time>2021-03-27T13:29:45Z</time>
      </trkpt>
      <trkpt lat="43.3761" lon="5.45023">
        <ele>313.4</ele>
        <time>2021-03-27T13:30:03Z</time>
      </trkpt>
      <trkpt lat="43.37631" lon="5.45014">
        <ele>312</ele>
        <time>2021-03-27T13:30:21Z</time>
      </trkpt>
      <trkpt lat="43.37649" lon="5.4503">
        <ele>314.9</ele>
        <time>2021-03-27T13:30:39Z</time>
      </trkpt>
      <trkpt lat="43.37664" lon="5.45051">
        <ele>318.6</ele>
        <time>2021-03-27T13:30:57Z</time>
      </trkpt>
      <trkpt lat="43.37674" lon="5.45078">
        <ele>323</ele>
        <time>2021-03-27T13:31:17Z</time>
      </trkpt>
      <trkpt lat="43.37692" lon="5.45095">
        <ele>324.5</ele>
        <time>2021-03-27T13:31:36Z</time>
      </trkpt>
      <trkpt lat="43.37709" lon="5.4508">
        <ele>322.7</ele>
        <time>2021-03-27T13:32:04Z</time>
      </trkpt>
      <trkpt lat="43.37727" lon="5.45062">
        <ele>321.7</ele>
        <time>2021-03-27T13:32:22Z</time>
      </trkpt>
      <trkpt lat="43.37729" lon="5.45034">
        <ele>320.8</ele>
        <time>2021-03-27T13:32:46Z</time>
      </trkpt>
      <trkpt lat="43.3772" lon="5.45006">
        <ele>318.6</ele>
        <time>2021-03-27T13:33:06Z</time>
      </trkpt>
      <trkpt lat="43.37712" lon="5.44977">
        <ele>316.3</ele>
        <time>2021-03-27T13:33:23Z</time>
      </trkpt>
      <trkpt lat="43.37701" lon="5.44951">
        <ele>312.9</ele>
        <time>2021-03-27T13:33:42Z</time>
      </trkpt>
      <trkpt lat="43.37687" lon="5.44927">
        <ele>308.2</ele>
        <time>2021-03-27T13:34:01Z</time>
      </trkpt>
      <trkpt lat="43.37674" lon="5.44903">
        <ele>304.5</ele>
        <time>2021-03-27T13:34:20Z</time>
      </trkpt>
      <trkpt lat="43.37658" lon="5.44884">
        <ele>302</ele>
        <time>2021-03-27T13:34:39Z</time>
      </trkpt>
      <trkpt lat="43.3764" lon="5.44867">
        <ele>300</ele>
        <time>2021-03-27T13:34:58Z</time>
      </trkpt>
      <trkpt lat="43.37619" lon="5.44855">
        <ele>297.2</ele>
        <time>2021-03-27T13:35:20Z</time>
      </trkpt>
      <trkpt lat="43.37597" lon="5.44848">
        <ele>294.1</ele>
        <time>2021-03-27T13:35:39Z</time>
      </trkpt>
      <trkpt lat="43.37576" lon="5.44845">
        <ele>291</ele>
        <time>2021-03-27T13:35:57Z</time>
      </trkpt>
      <trkpt lat="43.37554" lon="5.44851">
        <ele>288.1</ele>
        <time>2021-03-27T13:36:21Z</time>
      </trkpt>
      <trkpt lat="43.37531" lon="5.44852">
        <ele>285</ele>
        <time>2021-03-27T13:36:39Z</time>
      </trkpt>
      <trkpt lat="43.37509" lon="5.44851">
        <ele>282</ele>
        <time>2021-03-27T13:36:56Z</time>
      </trkpt>
      <trkpt lat="43.37487" lon="5.44849">
        <ele>279.9</ele>
        <time>2021-03-27T13:37:14Z</time>
      </trkpt>
      <trkpt lat="43.37465" lon="5.44844">
        <ele>278.5</ele>
        <time>2021-03-27T13:37:32Z</time>
      </trkpt>
      <trkpt lat="43.37442" lon="5.44842">
        <ele>276.9</ele>
        <time>2021-03-27T13:37:49Z</time>
      </trkpt>
      <trkpt lat="43.3742" lon="5.4484">
        <ele>275.3</ele>
        <time>2021-03-27T13:38:15Z</time>
      </trkpt>
      <trkpt lat="43.37397" lon="5.44844">
        <ele>273.7</ele>
        <time>2021-03-27T13:38:33Z</time>
      </trkpt>
      <trkpt lat="43.37376" lon="5.44849">
        <ele>271.8</ele>
        <time>2021-03-27T13:38:50Z</time>
      </trkpt>
      <trkpt lat="43.37355" lon="5.44858">
        <ele>269.4</ele>
        <time>2021-03-27T13:39:09Z</time>
      </trkpt>
      <trkpt lat="43.37333" lon="5.44864">
        <ele>266.7</ele>
        <time>2021-03-27T13:39:26Z</time>
      </trkpt>
      <trkpt lat="43.37312" lon="5.44873">
        <ele>263.4</ele>
        <time>2021-03-27T13:39:44Z</time>
      </trkpt>
      <trkpt lat="43.3729" lon="5.44878">
        <ele>260.6</ele>
        <time>2021-03-27T13:40:02Z</time>
      </trkpt>
      <trkpt lat="43.37268" lon="5.44874">
        <ele>258.5</ele>
        <time>2021-03-27T13:40:20Z</time>
      </trkpt>
      <trkpt lat="43.37247" lon="5.44864">
        <ele>256.7</ele>
        <time>2021-03-27T13:40:38Z</time>
      </trkpt>
      <trkpt lat="43.37226" lon="5.44858">
        <ele>255.5</ele>
        <time>2021-03-27T13:41:00Z</time>
      </trkpt>
      <trkpt lat="43.37207" lon="5.44843">
        <ele>254.3</ele>
        <time>2021-03-27T13:41:22Z</time>
      </trkpt>
      <trkpt lat="43.37184" lon="5.44838">
        <ele>252.6</ele>
        <time>2021-03-27T13:41:41Z</time>
      </trkpt>
      <trkpt lat="43.37164" lon="5.4483">
        <ele>250.8</ele>
        <time>2021-03-27T13:41:56Z</time>
      </trkpt>
      <trkpt lat="43.37141" lon="5.44827">
        <ele>249.1</ele>
        <time>2021-03-27T13:42:14Z</time>
      </trkpt>
      <trkpt lat="43.3712" lon="5.44825">
        <ele>247.5</ele>
        <time>2021-03-27T13:42:45Z</time>
      </trkpt>
      <trkpt lat="43.37098" lon="5.44826">
        <ele>245.9</ele>
        <time>2021-03-27T13:43:04Z</time>
      </trkpt>
      <trkpt lat="43.37077" lon="5.44831">
        <ele>244.6</ele>
        <time>2021-03-27T13:43:24Z</time>
      </trkpt>
      <trkpt lat="43.37055" lon="5.44839">
        <ele>243.8</ele>
        <time>2021-03-27T13:44:04Z</time>
      </trkpt>
      <trkpt lat="43.37033" lon="5.4484">
        <ele>242.7</ele>
        <time>2021-03-27T13:44:20Z</time>
      </trkpt>
      <trkpt lat="43.3701" lon="5.44843">
        <ele>241.6</ele>
        <time>2021-03-27T13:44:46Z</time>
      </trkpt>
      <trkpt lat="43.3699" lon="5.44853">
        <ele>240.6</ele>
        <time>2021-03-27T13:45:04Z</time>
      </trkpt>
      <trkpt lat="43.36972" lon="5.44868">
        <ele>239.6</ele>
        <time>2021-03-27T13:45:41Z</time>
      </trkpt>
      <trkpt lat="43.3695" lon="5.44874">
        <ele>237.3</ele>
        <time>2021-03-27T13:46:00Z</time>
      </trkpt>
      <trkpt lat="43.36932" lon="5.44859">
        <ele>233.8</ele>
        <time>2021-03-27T13:46:42Z</time>
      </trkpt>
      <trkpt lat="43.36911" lon="5.44849">
        <ele>230.6</ele>
        <time>2021-03-27T13:47:06Z</time>
      </trkpt>
      <trkpt lat="43.3689" lon="5.4485">
        <ele>228.7</ele>
        <time>2021-03-27T13:47:57Z</time>
      </trkpt>
      <trkpt lat="43.3687" lon="5.44838">
        <ele>225.5</ele>
        <time>2021-03-27T13:48:18Z</time>
      </trkpt>
      <trkpt lat="43.36856" lon="5.44815">
        <ele>225.8</ele>
        <time>2021-03-27T13:48:45Z</time>
      </trkpt>
      <trkpt lat="43.36838" lon="5.44797">
        <ele>225.6</ele>
        <time>2021-03-27T13:49:05Z</time>
      </trkpt>
      <trkpt lat="43.36817" lon="5.44793">
        <ele>224.3</ele>
        <time>2021-03-27T13:49:24Z</time>
      </trkpt>
      <trkpt lat="43.36796" lon="5.44801">
        <ele>222.7</ele>
        <time>2021-03-27T13:49:42Z</time>
      </trkpt>
      <trkpt lat="43.36775" lon="5.44789">
        <ele>221.7</ele>
        <time>2021-03-27T13:50:00Z</time>
      </trkpt>
      <trkpt lat="43.36758" lon="5.44769">
        <ele>219.8</ele>
        <time>2021-03-27T13:50:18Z</time>
      </trkpt>
      <trkpt lat="43.36745" lon="5.44746">
        <ele>218.1</ele>
        <time>2021-03-27T13:50:36Z</time>
      </trkpt>
      <trkpt lat="43.36728" lon="5.44725">
        <ele>218.2</ele>
        <time>2021-03-27T13:50:56Z</time>
      </trkpt>
      <trkpt lat="43.36708" lon="5.44715">
        <ele>216.9</ele>
        <time>2021-03-27T13:51:16Z</time>
      </trkpt>
      <trkpt lat="43.36686" lon="5.44707">
        <ele>214.9</ele>
        <time>2021-03-27T13:51:32Z</time>
      </trkpt>
      <trkpt lat="43.36666" lon="5.44691">
        <ele>211.6</ele>
        <time>2021-03-27T13:51:50Z</time>
      </trkpt>
      <trkpt lat="43.36647" lon="5.44678">
        <ele>209.1</ele>
        <time>2021-03-27T13:52:06Z</time>
      </trkpt>
      <trkpt lat="43.36625" lon="5.44671">
        <ele>207</ele>
        <time>2021-03-27T13:52:25Z</time>
      </trkpt>
      <trkpt lat="43.36603" lon="5.44666">
        <ele>205.3</ele>
        <time>2021-03-27T13:52:41Z</time>
      </trkpt>
      <trkpt lat="43.36586" lon="5.44646">
        <ele>206.1</ele>
        <time>2021-03-27T13:52:59Z</time>
      </trkpt>
      <trkpt lat="43.36566" lon="5.44634">
        <ele>206.5</ele>
        <time>2021-03-27T13:53:16Z</time>
      </trkpt>
      <trkpt lat="43.36545" lon="5.44639">
        <ele>205.1</ele>
        <time>2021-03-27T13:53:34Z</time>
      </trkpt>
      <trkpt lat="43.36533" lon="5.44663">
        <ele>202</ele>
        <time>2021-03-27T13:56:18Z</time>
      </trkpt>
      <trkpt lat="43.36512" lon="5.44673">
        <ele>201</ele>
        <time>2021-03-27T13:56:39Z</time>
      </trkpt>
      <trkpt lat="43.3649" lon="5.44672">
        <ele>199.7</ele>
        <time>2021-03-27T13:56:59Z</time>
      </trkpt>
      <trkpt lat="43.36485" lon="5.44655">
        <ele>200.3</ele>
        <time>2021-03-27T13:57:19Z</time>
      </trkpt>
      <trkpt lat="43.36504" lon="5.44642">
        <ele>203.2</ele>
        <time>2021-03-27T13:57:37Z</time>
      </trkpt>
      <trkpt lat="43.36522" lon="5.44625">
        <ele>205.9</ele>
        <time>2021-03-27T13:58:00Z</time>
      </trkpt>
      <trkpt lat="43.36536" lon="5.44602">
        <ele>208.8</ele>
        <time>2021-03-27T13:58:18Z</time>
      </trkpt>
      <trkpt lat="43.36548" lon="5.44578">
        <ele>211.4</ele>
        <time>2021-03-27T13:58:34Z</time>
      </trkpt>
      <trkpt lat="43.36561" lon="5.44553">
        <ele>213.3</ele>
        <time>2021-03-27T13:58:53Z</time>
      </trkpt>
      <trkpt lat="43.36576" lon="5.44533">
        <ele>215.7</ele>
        <time>2021-03-27T13:59:12Z</time>
      </trkpt>
      <trkpt lat="43.36591" lon="5.4451">
        <ele>218.8</ele>
        <time>2021-03-27T13:59:34Z</time>
      </trkpt>
      <trkpt lat="43.36609" lon="5.44492">
        <ele>222.1</ele>
        <time>2021-03-27T13:59:52Z</time>
      </trkpt>
      <trkpt lat="43.36627" lon="5.44475">
        <ele>225.6</ele>
        <time>2021-03-27T14:00:12Z</time>
      </trkpt>
      <trkpt lat="43.36643" lon="5.44454">
        <ele>229.7</ele>
        <time>2021-03-27T14:00:37Z</time>
      </trkpt>
      <trkpt lat="43.36659" lon="5.44433">
        <ele>234.1</ele>
        <time>2021-03-27T14:00:59Z</time>
      </trkpt>
      <trkpt lat="43.36673" lon="5.44409">
        <ele>236.9</ele>
        <time>2021-03-27T14:01:20Z</time>
      </trkpt>
      <trkpt lat="43.36682" lon="5.44381">
        <ele>237.2</ele>
        <time>2021-03-27T14:01:39Z</time>
      </trkpt>
      <trkpt lat="43.36694" lon="5.44356">
        <ele>238.5</ele>
        <time>2021-03-27T14:02:09Z</time>
      </trkpt>
      <trkpt lat="43.3671" lon="5.44334">
        <ele>241.1</ele>
        <time>2021-03-27T14:02:28Z</time>
      </trkpt>
      <trkpt lat="43.36724" lon="5.4431">
        <ele>244.2</ele>
        <time>2021-03-27T14:02:49Z</time>
      </trkpt>
      <trkpt lat="43.36737" lon="5.44288">
        <ele>246.9</ele>
        <time>2021-03-27T14:03:11Z</time>
      </trkpt>
      <trkpt lat="43.36754" lon="5.44269">
        <ele>249.7</ele>
        <time>2021-03-27T14:03:31Z</time>
      </trkpt>
      <trkpt lat="43.36769" lon="5.44247">
        <ele>253.6</ele>
        <time>2021-03-27T14:04:00Z</time>
      </trkpt>
      <trkpt lat="43.3678" lon="5.44221">
        <ele>256.6</ele>
        <time>2021-03-27T14:04:41Z</time>
      </trkpt>
      <trkpt lat="43.368" lon="5.4421">
        <ele>259.9</ele>
        <time>2021-03-27T14:04:59Z</time>
      </trkpt>
      <trkpt lat="43.36821" lon="5.44205">
        <ele>263.1</ele>
        <time>2021-03-27T14:05:19Z</time>
      </trkpt>
      <trkpt lat="43.36841" lon="5.44216">
        <ele>265.7</ele>
        <time>2021-03-27T14:05:38Z</time>
      </trkpt>
      <trkpt lat="43.36863" lon="5.44218">
        <ele>267.6</ele>
        <time>2021-03-27T14:05:58Z</time>
      </trkpt>
      <trkpt lat="43.36885" lon="5.44216">
        <ele>269.6</ele>
        <time>2021-03-27T14:06:18Z</time>
      </trkpt>
      <trkpt lat="43.36907" lon="5.44212">
        <ele>271.6</ele>
        <time>2021-03-27T14:06:39Z</time>
      </trkpt>
      <trkpt lat="43.36918" lon="5.44189">
        <ele>272.8</ele>
        <time>2021-03-27T14:07:53Z</time>
      </trkpt>
      <trkpt lat="43.36917" lon="5.44159">
        <ele>272.8</ele>
        <time>2021-03-27T14:08:13Z</time>
      </trkpt>
      <trkpt lat="43.36922" lon="5.44129">
        <ele>272.4</ele>
        <time>2021-03-27T14:08:32Z</time>
      </trkpt>
      <trkpt lat="43.36926" lon="5.441">
        <ele>271.9</ele>
        <time>2021-03-27T14:08:50Z</time>
      </trkpt>
      <trkpt lat="43.36927" lon="5.44069">
        <ele>271.4</ele>
        <time>2021-03-27T14:09:08Z</time>
      </trkpt>
      <trkpt lat="43.36927" lon="5.44039">
        <ele>270.9</ele>
        <time>2021-03-27T14:09:30Z</time>
      </trkpt>
      <trkpt lat="43.36927" lon="5.4401">
        <ele>270.5</ele>
        <time>2021-03-27T14:10:07Z</time>
      </trkpt>
      <trkpt lat="43.3693" lon="5.4398">
        <ele>270.7</ele>
        <time>2021-03-27T14:10:33Z</time>
      </trkpt>
      <trkpt lat="43.36926" lon="5.43952">
        <ele>270.7</ele>
        <time>2021-03-27T14:10:52Z</time>
      </trkpt>
      <trkpt lat="43.36907" lon="5.43937">
        <ele>269.5</ele>
        <time>2021-03-27T14:11:11Z</time>
      </trkpt>
      <trkpt lat="43.36889" lon="5.4392">
        <ele>268.3</ele>
        <time>2021-03-27T14:11:30Z</time>
      </trkpt>
      <trkpt lat="43.36873" lon="5.43899">
        <ele>267.6</ele>
        <time>2021-03-27T14:11:49Z</time>
      </trkpt>
      <trkpt lat="43.36867" lon="5.43871">
        <ele>267.5</ele>
        <time>2021-03-27T14:12:07Z</time>
      </trkpt>
      <trkpt lat="43.36873" lon="5.43843">
        <ele>268.3</ele>
        <time>2021-03-27T14:12:25Z</time>
      </trkpt>
      <trkpt lat="43.36881" lon="5.43814">
        <ele>270.1</ele>
        <time>2021-03-27T14:12:43Z</time>
      </trkpt>
      <trkpt lat="43.36889" lon="5.43787">
        <ele>272.3</ele>
        <time>2021-03-27T14:13:06Z</time>
      </trkpt>
      <trkpt lat="43.36872" lon="5.43799">
        <ele>270.8</ele>
        <time>2021-03-27T14:14:03Z</time>
      </trkpt>
      <trkpt lat="43.36859" lon="5.43823">
        <ele>268.4</ele>
        <time>2021-03-27T14:14:29Z</time>
      </trkpt>
      <trkpt lat="43.36837" lon="5.43821">
        <ele>267.3</ele>
        <time>2021-03-27T14:15:03Z</time>
      </trkpt>
      <trkpt lat="43.36823" lon="5.43809">
        <ele>268.2</ele>
        <time>2021-03-27T14:15:26Z</time>
      </trkpt>
      <trkpt lat="43.36812" lon="5.43786">
        <ele>270.1</ele>
        <time>2021-03-27T14:15:46Z</time>
      </trkpt>
      <trkpt lat="43.36808" lon="5.43757">
        <ele>272.5</ele>
        <time>2021-03-27T14:16:10Z</time>
      </trkpt>
      <trkpt lat="43.36804" lon="5.43727">
        <ele>273.7</ele>
        <time>2021-03-27T14:16:31Z</time>
      </trkpt>
      <trkpt lat="43.3679" lon="5.43706">
        <ele>273.2</ele>
        <time>2021-03-27T14:16:51Z</time>
      </trkpt>
      <trkpt lat="43.368" lon="5.43683">
        <ele>274.8</ele>
        <time>2021-03-27T14:19:08Z</time>
      </trkpt>
      <trkpt lat="43.36818" lon="5.437">
        <ele>276.1</ele>
        <time>2021-03-27T14:19:33Z</time>
      </trkpt>
      <trkpt lat="43.36814" lon="5.43689">
        <ele>276.2</ele>
        <time>2021-03-27T14:20:47Z</time>
      </trkpt>
      <trkpt lat="43.36794" lon="5.43695">
        <ele>273.7</ele>
        <time>2021-03-27T14:21:10Z</time>
      </trkpt>
      <trkpt lat="43.36787" lon="5.43673">
        <ele>273.3</ele>
        <time>2021-03-27T14:22:13Z</time>
      </trkpt>
      <trkpt lat="43.36771" lon="5.43678">
        <ele>271.1</ele>
        <time>2021-03-27T14:22:37Z</time>
      </trkpt>
      <trkpt lat="43.36751" lon="5.43692">
        <ele>269</ele>
        <time>2021-03-27T14:23:04Z</time>
      </trkpt>
      <trkpt lat="43.36731" lon="5.43705">
        <ele>267.2</ele>
        <time>2021-03-27T14:23:26Z</time>
      </trkpt>
      <trkpt lat="43.36712" lon="5.4372">
        <ele>265.6</ele>
        <time>2021-03-27T14:23:47Z</time>
      </trkpt>
      <trkpt lat="43.36691" lon="5.4373">
        <ele>263.8</ele>
        <time>2021-03-27T14:24:05Z</time>
      </trkpt>
      <trkpt lat="43.3667" lon="5.43737">
        <ele>261.7</ele>
        <time>2021-03-27T14:24:24Z</time>
      </trkpt>
      <trkpt lat="43.36649" lon="5.43746">
        <ele>259.7</ele>
        <time>2021-03-27T14:24:43Z</time>
      </trkpt>
      <trkpt lat="43.36627" lon="5.43748">
        <ele>257.2</ele>
        <time>2021-03-27T14:25:02Z</time>
      </trkpt>
      <trkpt lat="43.36605" lon="5.43753">
        <ele>254.5</ele>
        <time>2021-03-27T14:25:20Z</time>
      </trkpt>
      <trkpt lat="43.36585" lon="5.43749">
        <ele>252.2</ele>
        <time>2021-03-27T14:25:41Z</time>
      </trkpt>
      <trkpt lat="43.36567" lon="5.43738">
        <ele>250.4</ele>
        <time>2021-03-27T14:26:01Z</time>
      </trkpt>
      <trkpt lat="43.36575" lon="5.43764">
        <ele>251</ele>
        <time>2021-03-27T14:26:24Z</time>
      </trkpt>
      <trkpt lat="43.36583" lon="5.43791">
        <ele>250.5</ele>
        <time>2021-03-27T14:26:53Z</time>
      </trkpt>
      <trkpt lat="43.3659" lon="5.4382">
        <ele>250.3</ele>
        <time>2021-03-27T14:27:14Z</time>
      </trkpt>
      <trkpt lat="43.36595" lon="5.43849">
        <ele>250.7</ele>
        <time>2021-03-27T14:27:40Z</time>
      </trkpt>
      <trkpt lat="43.36593" lon="5.4388">
        <ele>250.8</ele>
        <time>2021-03-27T14:28:00Z</time>
      </trkpt>
      <trkpt lat="43.36592" lon="5.4391">
        <ele>251.2</ele>
        <time>2021-03-27T14:28:19Z</time>
      </trkpt>
      <trkpt lat="43.36592" lon="5.4394">
        <ele>253.7</ele>
        <time>2021-03-27T14:28:38Z</time>
      </trkpt>
      <trkpt lat="43.36591" lon="5.4397">
        <ele>256.9</ele>
        <time>2021-03-27T14:28:58Z</time>
      </trkpt>
      <trkpt lat="43.36587" lon="5.43999">
        <ele>259.9</ele>
        <time>2021-03-27T14:29:19Z</time>
      </trkpt>
      <trkpt lat="43.36574" lon="5.44024">
        <ele>259.7</ele>
        <time>2021-03-27T14:29:41Z</time>
      </trkpt>
      <trkpt lat="43.36558" lon="5.44045">
        <ele>259</ele>
        <time>2021-03-27T14:30:01Z</time>
      </trkpt>
      <trkpt lat="43.36542" lon="5.44067">
        <ele>258.3</ele>
        <time>2021-03-27T14:30:18Z</time>
      </trkpt>
      <trkpt lat="43.36526" lon="5.44087">
        <ele>257.4</ele>
        <time>2021-03-27T14:30:37Z</time>
      </trkpt>
      <trkpt lat="43.36512" lon="5.4411">
        <ele>255.6</ele>
        <time>2021-03-27T14:30:56Z</time>
      </trkpt>
      <trkpt lat="43.36497" lon="5.44132">
        <ele>254.1</ele>
        <time>2021-03-27T14:31:15Z</time>
      </trkpt>
      <trkpt lat="43.36479" lon="5.4415">
        <ele>253</ele>
        <time>2021-03-27T14:31:32Z</time>
      </trkpt>
      <trkpt lat="43.36459" lon="5.44139">
        <ele>252.8</ele>
        <time>2021-03-27T14:31:52Z</time>
      </trkpt>
      <trkpt lat="43.36439" lon="5.44127">
        <ele>252.6</ele>
        <time>2021-03-27T14:32:10Z</time>
      </trkpt>
      <trkpt lat="43.36419" lon="5.44114">
        <ele>252.3</ele>
        <time>2021-03-27T14:32:28Z</time>
      </trkpt>
      <trkpt lat="43.36399" lon="5.44104">
        <ele>251.3</ele>
        <time>2021-03-27T14:32:46Z</time>
      </trkpt>
      <trkpt lat="43.36378" lon="5.44091">
        <ele>250.4</ele>
        <time>2021-03-27T14:33:06Z</time>
      </trkpt>
      <trkpt lat="43.36361" lon="5.44077">
        <ele>249.6</ele>
        <time>2021-03-27T14:33:51Z</time>
      </trkpt>
    </trkseg>
  </trk>
</gpx>